sensor_id;sensor_type;location;lat;lon;timestamp;temperature;humidity
2439;DHT22;14509;47.992;7.848;2022-12-13T00:00:34;-0.10;48.30
2439;DHT22;14509;47.992;7.848;2022-12-13T00:02:43;0.20;48.50
2439;DHT22;14509;47.992;7.848;2022-12-13T00:04:45;0.40;48.50
2439;DHT22;14509;47.992;7.848;2022-12-13T00:06:48;-0.20;48.30
2439;DHT22;14509;47.992;7.848;2022-12-13T00:08:56;-0.20;48.50
2439;DHT22;14509;47.992;7.848;2022-12-13T00:11:10;-0.30;48.40
2439;DHT22;14509;47.992;7.848;2022-12-13T00:13:33;-0.20;48.80
2439;DHT22;14509;47.992;7.848;2022-12-13T00:15:58;-0.20;48.90
2439;DHT22;14509;47.992;7.848;2022-12-13T00:18:00;0.40;49.40
2439;DHT22;14509;47.992;7.848;2022-12-13T00:20:02;0.40;49.30
2439;DHT22;14509;47.992;7.848;2022-12-13T00:22:05;-0.20;49.10
2439;DHT22;14509;47.992;7.848;2022-12-13T00:24:10;-0.10;49.20
2439;DHT22;14509;47.992;7.848;2022-12-13T00:26:15;-0.10;49.20
2439;DHT22;14509;47.992;7.848;2022-12-13T00:28:18;0.00;49.50
2439;DHT22;14509;47.992;7.848;2022-12-13T00:30:22;0.00;49.40
2439;DHT22;14509;47.992;7.848;2022-12-13T00:32:30;0.10;49.60
2439;DHT22;14509;47.992;7.848;2022-12-13T00:34:32;0.20;49.60
2439;DHT22;14509;47.992;7.848;2022-12-13T00:36:34;0.20;49.60
2439;DHT22;14509;47.992;7.848;2022-12-13T00:38:39;0.30;49.60
2439;DHT22;14509;47.992;7.848;2022-12-13T00:40:40;0.40;49.60
2439;DHT22;14509;47.992;7.848;2022-12-13T00:42:42;1.40;50.20
2439;DHT22;14509;47.992;7.848;2022-12-13T00:44:44;0.80;49.70
2439;DHT22;14509;47.992;7.848;2022-12-13T00:46:48;1.00;49.70
2439;DHT22;14509;47.992;7.848;2022-12-13T00:48:52;0.70;49.60
2439;DHT22;14509;47.992;7.848;2022-12-13T00:50:54;0.70;49.50
2439;DHT22;14509;47.992;7.848;2022-12-13T00:52:56;0.80;49.30
2439;DHT22;14509;47.992;7.848;2022-12-13T00:54:59;0.80;49.10
2439;DHT22;14509;47.992;7.848;2022-12-13T00:57:00;0.80;49.00
2439;DHT22;14509;47.992;7.848;2022-12-13T00:59:03;0.90;49.00
2439;DHT22;14509;47.992;7.848;2022-12-13T01:01:05;0.90;49.10
2439;DHT22;14509;47.992;7.848;2022-12-13T01:03:09;0.90;49.00
2439;DHT22;14509;47.992;7.848;2022-12-13T01:05:20;0.90;49.00
2439;DHT22;14509;47.992;7.848;2022-12-13T01:07:22;0.90;48.90
2439;DHT22;14509;47.992;7.848;2022-12-13T01:09:26;0.90;48.70
2439;DHT22;14509;47.992;7.848;2022-12-13T01:11:30;0.80;48.50
2439;DHT22;14509;47.992;7.848;2022-12-13T01:13:32;0.80;48.50
2439;DHT22;14509;47.992;7.848;2022-12-13T01:15:34;1.60;49.10
2439;DHT22;14509;47.992;7.848;2022-12-13T01:17:36;0.70;48.40
2439;DHT22;14509;47.992;7.848;2022-12-13T01:19:40;1.30;48.90
2439;DHT22;14509;47.992;7.848;2022-12-13T01:21:42;0.70;48.50
2439;DHT22;14509;47.992;7.848;2022-12-13T01:23:43;0.70;48.60
2439;DHT22;14509;47.992;7.848;2022-12-13T01:25:45;0.70;48.70
2439;DHT22;14509;47.992;7.848;2022-12-13T01:27:47;0.70;49.10
2439;DHT22;14509;47.992;7.848;2022-12-13T01:29:51;0.70;48.90
2439;DHT22;14509;47.992;7.848;2022-12-13T01:31:55;0.70;48.90
2439;DHT22;14509;47.992;7.848;2022-12-13T01:33:57;0.70;48.80
2439;DHT22;14509;47.992;7.848;2022-12-13T01:36:04;0.70;48.80
2439;DHT22;14509;47.992;7.848;2022-12-13T01:38:07;0.60;48.90
2439;DHT22;14509;47.992;7.848;2022-12-13T01:40:09;0.70;49.00
2439;DHT22;14509;47.992;7.848;2022-12-13T01:42:14;0.70;49.10
2439;DHT22;14509;47.992;7.848;2022-12-13T01:46:37;0.70;49.00
2439;DHT22;14509;47.992;7.848;2022-12-13T01:48:40;0.70;48.80
2439;DHT22;14509;47.992;7.848;2022-12-13T01:50:43;1.30;49.40
2439;DHT22;14509;47.992;7.848;2022-12-13T01:52:47;0.70;48.90
2439;DHT22;14509;47.992;7.848;2022-12-13T01:54:53;0.70;48.90
2439;DHT22;14509;47.992;7.848;2022-12-13T01:56:57;0.80;48.80
2439;DHT22;14509;47.992;7.848;2022-12-13T01:59:00;0.80;48.70
2439;DHT22;14509;47.992;7.848;2022-12-13T02:01:03;0.90;48.70
2439;DHT22;14509;47.992;7.848;2022-12-13T02:03:08;0.80;48.50
2439;DHT22;14509;47.992;7.848;2022-12-13T02:05:11;0.80;48.50
2439;DHT22;14509;47.992;7.848;2022-12-13T02:07:14;0.80;48.40
2439;DHT22;14509;47.992;7.848;2022-12-13T02:09:18;0.70;48.30
2439;DHT22;14509;47.992;7.848;2022-12-13T02:11:21;0.70;48.30
2439;DHT22;14509;47.992;7.848;2022-12-13T02:13:23;0.70;48.30
2439;DHT22;14509;47.992;7.848;2022-12-13T02:15:26;0.60;48.10
2439;DHT22;14509;47.992;7.848;2022-12-13T02:17:31;0.60;48.20
2439;DHT22;14509;47.992;7.848;2022-12-13T02:22:04;0.60;48.50
2439;DHT22;14509;47.992;7.848;2022-12-13T02:26:45;0.60;48.40
2439;DHT22;14509;47.992;7.848;2022-12-13T02:28:54;0.60;48.40
2439;DHT22;14509;47.992;7.848;2022-12-13T02:31:04;0.60;48.40
2439;DHT22;14509;47.992;7.848;2022-12-13T02:33:11;0.60;48.40
2439;DHT22;14509;47.992;7.848;2022-12-13T02:35:16;0.60;48.30
2439;DHT22;14509;47.992;7.848;2022-12-13T02:37:22;0.60;48.20
2439;DHT22;14509;47.992;7.848;2022-12-13T02:39:27;0.60;48.20
2439;DHT22;14509;47.992;7.848;2022-12-13T02:41:32;0.60;48.80
2439;DHT22;14509;47.992;7.848;2022-12-13T02:43:37;0.70;48.40
2439;DHT22;14509;47.992;7.848;2022-12-13T02:45:43;0.60;48.30
2439;DHT22;14509;47.992;7.848;2022-12-13T02:47:48;0.60;48.30
2439;DHT22;14509;47.992;7.848;2022-12-13T02:49:54;0.60;48.30
2439;DHT22;14509;47.992;7.848;2022-12-13T02:51:57;0.60;48.30
2439;DHT22;14509;47.992;7.848;2022-12-13T02:53:59;0.60;48.30
2439;DHT22;14509;47.992;7.848;2022-12-13T02:56:01;0.70;48.40
2439;DHT22;14509;47.992;7.848;2022-12-13T02:58:03;0.70;48.30
2439;DHT22;14509;47.992;7.848;2022-12-13T03:00:09;0.70;48.20
2439;DHT22;14509;47.992;7.848;2022-12-13T03:02:16;0.70;48.30
2439;DHT22;14509;47.992;7.848;2022-12-13T03:04:22;1.20;48.60
2439;DHT22;14509;47.992;7.848;2022-12-13T03:06:28;0.80;48.30
2439;DHT22;14509;47.992;7.848;2022-12-13T03:08:34;0.70;48.10
2439;DHT22;14509;47.992;7.848;2022-12-13T03:10:40;0.80;48.20
2439;DHT22;14509;47.992;7.848;2022-12-13T03:12:46;0.80;48.10
2439;DHT22;14509;47.992;7.848;2022-12-13T03:15:11;0.80;47.90
2439;DHT22;14509;47.992;7.848;2022-12-13T03:17:14;0.80;47.90
2439;DHT22;14509;47.992;7.848;2022-12-13T03:19:18;0.80;47.80
2439;DHT22;14509;47.992;7.848;2022-12-13T03:21:21;0.80;47.80
2439;DHT22;14509;47.992;7.848;2022-12-13T03:23:24;0.70;47.70
2439;DHT22;14509;47.992;7.848;2022-12-13T03:25:28;0.70;47.70
2439;DHT22;14509;47.992;7.848;2022-12-13T03:27:31;0.70;47.70
2439;DHT22;14509;47.992;7.848;2022-12-13T03:29:33;0.70;47.60
2439;DHT22;14509;47.992;7.848;2022-12-13T03:31:36;0.70;47.50
2439;DHT22;14509;47.992;7.848;2022-12-13T03:33:38;0.70;47.50
2439;DHT22;14509;47.992;7.848;2022-12-13T03:35:39;0.70;47.50
2439;DHT22;14509;47.992;7.848;2022-12-13T03:37:45;0.70;47.60
2439;DHT22;14509;47.992;7.848;2022-12-13T03:39:48;0.70;47.50
2439;DHT22;14509;47.992;7.848;2022-12-13T03:41:50;0.70;47.50
2439;DHT22;14509;47.992;7.848;2022-12-13T03:43:52;0.80;47.50
2439;DHT22;14509;47.992;7.848;2022-12-13T03:45:54;1.10;47.70
2439;DHT22;14509;47.992;7.848;2022-12-13T03:47:55;0.80;47.60
2439;DHT22;14509;47.992;7.848;2022-12-13T03:49:57;0.80;47.50
2439;DHT22;14509;47.992;7.848;2022-12-13T03:52:02;0.80;47.50
2439;DHT22;14509;47.992;7.848;2022-12-13T03:54:08;0.80;47.40
2439;DHT22;14509;47.992;7.848;2022-12-13T03:56:10;0.80;47.60
2439;DHT22;14509;47.992;7.848;2022-12-13T03:58:12;0.80;47.30
2439;DHT22;14509;47.992;7.848;2022-12-13T04:00:14;0.80;47.40
2439;DHT22;14509;47.992;7.848;2022-12-13T04:02:16;0.80;47.50
2439;DHT22;14509;47.992;7.848;2022-12-13T04:04:18;0.80;47.40
2439;DHT22;14509;47.992;7.848;2022-12-13T04:06:20;0.80;47.50
2439;DHT22;14509;47.992;7.848;2022-12-13T04:08:22;1.50;48.00
2439;DHT22;14509;47.992;7.848;2022-12-13T04:10:25;0.80;47.50
2439;DHT22;14509;47.992;7.848;2022-12-13T04:12:27;0.80;47.40
2439;DHT22;14509;47.992;7.848;2022-12-13T04:14:46;0.80;47.30
2439;DHT22;14509;47.992;7.848;2022-12-13T04:16:48;0.80;47.30
2439;DHT22;14509;47.992;7.848;2022-12-13T04:18:50;0.70;47.30
2439;DHT22;14509;47.992;7.848;2022-12-13T04:20:52;0.70;47.40
2439;DHT22;14509;47.992;7.848;2022-12-13T04:22:53;0.70;47.30
2439;DHT22;14509;47.992;7.848;2022-12-13T04:24:55;1.30;47.90
2439;DHT22;14509;47.992;7.848;2022-12-13T04:26:59;0.60;47.40
2439;DHT22;14509;47.992;7.848;2022-12-13T04:29:01;0.60;47.60
2439;DHT22;14509;47.992;7.848;2022-12-13T04:31:03;0.60;47.60
2439;DHT22;14509;47.992;7.848;2022-12-13T04:33:04;0.60;47.70
2439;DHT22;14509;47.992;7.848;2022-12-13T04:35:06;0.70;48.00
2439;DHT22;14509;47.992;7.848;2022-12-13T04:37:08;0.60;48.10
2439;DHT22;14509;47.992;7.848;2022-12-13T04:39:10;0.60;47.90
2439;DHT22;14509;47.992;7.848;2022-12-13T04:41:13;0.60;48.00
2439;DHT22;14509;47.992;7.848;2022-12-13T04:43:17;0.70;48.20
2439;DHT22;14509;47.992;7.848;2022-12-13T04:45:19;1.50;48.80
2439;DHT22;14509;47.992;7.848;2022-12-13T04:47:21;0.60;48.20
2439;DHT22;14509;47.992;7.848;2022-12-13T04:49:23;0.60;48.10
2439;DHT22;14509;47.992;7.848;2022-12-13T04:51:24;0.70;48.00
2439;DHT22;14509;47.992;7.848;2022-12-13T04:53:26;0.60;47.90
2439;DHT22;14509;47.992;7.848;2022-12-13T04:55:28;0.60;48.00
2439;DHT22;14509;47.992;7.848;2022-12-13T04:57:30;0.60;48.10
2439;DHT22;14509;47.992;7.848;2022-12-13T04:59:34;0.50;47.90
2439;DHT22;14509;47.992;7.848;2022-12-13T05:01:36;0.50;47.80
2439;DHT22;14509;47.992;7.848;2022-12-13T05:03:38;0.40;47.70
2439;DHT22;14509;47.992;7.848;2022-12-13T05:05:40;0.40;47.80
2439;DHT22;14509;47.992;7.848;2022-12-13T05:07:41;0.30;47.90
2439;DHT22;14509;47.992;7.848;2022-12-13T05:09:43;0.30;47.90
2439;DHT22;14509;47.992;7.848;2022-12-13T05:11:45;0.20;48.10
2439;DHT22;14509;47.992;7.848;2022-12-13T05:13:48;0.20;48.00
2439;DHT22;14509;47.992;7.848;2022-12-13T05:15:55;0.20;48.20
2439;DHT22;14509;47.992;7.848;2022-12-13T05:17:58;0.10;48.40
2439;DHT22;14509;47.992;7.848;2022-12-13T05:20:00;0.10;48.50
2439;DHT22;14509;47.992;7.848;2022-12-13T05:22:01;0.10;48.40
2439;DHT22;14509;47.992;7.848;2022-12-13T05:24:03;0.10;48.40
2439;DHT22;14509;47.992;7.848;2022-12-13T05:26:05;0.10;48.50
2439;DHT22;14509;47.992;7.848;2022-12-13T05:28:07;0.10;48.50
2439;DHT22;14509;47.992;7.848;2022-12-13T05:30:10;0.10;48.50
2439;DHT22;14509;47.992;7.848;2022-12-13T05:32:13;0.10;48.70
2439;DHT22;14509;47.992;7.848;2022-12-13T05:34:15;0.10;48.70
2439;DHT22;14509;47.992;7.848;2022-12-13T05:36:17;0.20;48.80
2439;DHT22;14509;47.992;7.848;2022-12-13T05:38:18;0.20;48.70
2439;DHT22;14509;47.992;7.848;2022-12-13T05:40:20;0.30;49.40
2439;DHT22;14509;47.992;7.848;2022-12-13T05:42:22;0.20;48.70
2439;DHT22;14509;47.992;7.848;2022-12-13T05:44:24;0.20;48.60
2439;DHT22;14509;47.992;7.848;2022-12-13T05:46:25;0.30;48.40
2439;DHT22;14509;47.992;7.848;2022-12-13T05:48:29;0.30;48.30
2439;DHT22;14509;47.992;7.848;2022-12-13T05:50:30;0.30;48.10
2439;DHT22;14509;47.992;7.848;2022-12-13T05:52:32;0.20;48.00
2439;DHT22;14509;47.992;7.848;2022-12-13T05:54:34;0.30;48.00
2439;DHT22;14509;47.992;7.848;2022-12-13T05:56:36;0.30;48.00
2439;DHT22;14509;47.992;7.848;2022-12-13T05:58:38;0.30;47.90
2439;DHT22;14509;47.992;7.848;2022-12-13T06:00:40;0.30;48.00
2439;DHT22;14509;47.992;7.848;2022-12-13T06:02:42;0.30;47.70
2439;DHT22;14509;47.992;7.848;2022-12-13T06:04:45;0.30;47.70
2439;DHT22;14509;47.992;7.848;2022-12-13T06:06:47;0.30;47.60
2439;DHT22;14509;47.992;7.848;2022-12-13T06:08:49;0.30;47.50
2439;DHT22;14509;47.992;7.848;2022-12-13T06:10:52;0.30;47.50
2439;DHT22;14509;47.992;7.848;2022-12-13T06:12:54;0.30;47.70
2439;DHT22;14509;47.992;7.848;2022-12-13T06:14:56;0.30;47.70
2439;DHT22;14509;47.992;7.848;2022-12-13T06:16:58;0.30;47.80
2439;DHT22;14509;47.992;7.848;2022-12-13T06:19:00;0.30;47.80
2439;DHT22;14509;47.992;7.848;2022-12-13T06:21:04;0.40;47.80
2439;DHT22;14509;47.992;7.848;2022-12-13T06:23:06;0.30;47.70
2439;DHT22;14509;47.992;7.848;2022-12-13T06:25:08;0.30;47.60
2439;DHT22;14509;47.992;7.848;2022-12-13T06:27:10;0.80;48.00
2439;DHT22;14509;47.992;7.848;2022-12-13T06:29:13;0.40;47.70
2439;DHT22;14509;47.992;7.848;2022-12-13T06:31:14;0.30;47.80
2439;DHT22;14509;47.992;7.848;2022-12-13T06:33:16;0.40;47.80
2439;DHT22;14509;47.992;7.848;2022-12-13T06:35:18;0.50;47.90
2439;DHT22;14509;47.992;7.848;2022-12-13T06:37:22;0.50;47.70
2439;DHT22;14509;47.992;7.848;2022-12-13T06:39:23;0.50;47.70
2439;DHT22;14509;47.992;7.848;2022-12-13T06:41:25;0.50;47.70
2439;DHT22;14509;47.992;7.848;2022-12-13T06:43:27;0.50;47.70
2439;DHT22;14509;47.992;7.848;2022-12-13T06:45:29;0.50;47.70
2439;DHT22;14509;47.992;7.848;2022-12-13T06:47:31;0.50;47.80
2439;DHT22;14509;47.992;7.848;2022-12-13T06:49:32;0.50;47.80
2439;DHT22;14509;47.992;7.848;2022-12-13T06:51:34;0.50;47.70
2439;DHT22;14509;47.992;7.848;2022-12-13T06:53:38;0.80;48.00
2439;DHT22;14509;47.992;7.848;2022-12-13T06:55:40;0.50;48.00
2439;DHT22;14509;47.992;7.848;2022-12-13T06:57:42;0.50;47.90
2439;DHT22;14509;47.992;7.848;2022-12-13T06:59:44;1.00;48.50
2439;DHT22;14509;47.992;7.848;2022-12-13T07:01:46;0.50;48.10
2439;DHT22;14509;47.992;7.848;2022-12-13T07:03:48;0.50;48.20
2439;DHT22;14509;47.992;7.848;2022-12-13T07:05:50;0.50;48.40
2439;DHT22;14509;47.992;7.848;2022-12-13T07:07:51;0.50;48.40
2439;DHT22;14509;47.992;7.848;2022-12-13T07:09:55;0.50;48.50
2439;DHT22;14509;47.992;7.848;2022-12-13T07:11:57;0.50;48.50
2439;DHT22;14509;47.992;7.848;2022-12-13T07:13:59;0.50;48.70
2439;DHT22;14509;47.992;7.848;2022-12-13T07:16:01;0.50;48.60
2439;DHT22;14509;47.992;7.848;2022-12-13T07:18:03;0.80;48.70
2439;DHT22;14509;47.992;7.848;2022-12-13T07:20:05;0.70;48.70
2439;DHT22;14509;47.992;7.848;2022-12-13T07:22:08;0.60;48.70
2439;DHT22;14509;47.992;7.848;2022-12-13T07:24:10;0.60;48.60
2439;DHT22;14509;47.992;7.848;2022-12-13T07:26:14;0.90;48.70
2439;DHT22;14509;47.992;7.848;2022-12-13T07:28:15;1.40;49.00
2439;DHT22;14509;47.992;7.848;2022-12-13T07:30:17;0.70;48.50
2439;DHT22;14509;47.992;7.848;2022-12-13T07:32:19;0.70;48.50
2439;DHT22;14509;47.992;7.848;2022-12-13T07:34:22;0.70;48.50
2439;DHT22;14509;47.992;7.848;2022-12-13T07:36:24;0.80;48.50
2439;DHT22;14509;47.992;7.848;2022-12-13T07:38:26;0.80;48.40
2439;DHT22;14509;47.992;7.848;2022-12-13T07:40:28;0.80;48.50
2439;DHT22;14509;47.992;7.848;2022-12-13T07:42:31;0.80;48.40
2439;DHT22;14509;47.992;7.848;2022-12-13T07:44:33;0.80;48.40
2439;DHT22;14509;47.992;7.848;2022-12-13T07:46:35;0.80;48.20
2439;DHT22;14509;47.992;7.848;2022-12-13T07:48:37;0.80;48.20
2439;DHT22;14509;47.992;7.848;2022-12-13T07:50:39;0.80;48.20
2439;DHT22;14509;47.992;7.848;2022-12-13T07:52:41;0.90;48.30
2439;DHT22;14509;47.992;7.848;2022-12-13T07:54:43;0.80;48.10
2439;DHT22;14509;47.992;7.848;2022-12-13T07:56:45;0.90;48.00
2439;DHT22;14509;47.992;7.848;2022-12-13T07:58:48;0.90;48.00
2439;DHT22;14509;47.992;7.848;2022-12-13T08:00:50;0.90;48.10
2439;DHT22;14509;47.992;7.848;2022-12-13T08:02:52;1.00;48.20
2439;DHT22;14509;47.992;7.848;2022-12-13T08:04:54;1.00;48.20
2439;DHT22;14509;47.992;7.848;2022-12-13T08:06:55;1.00;48.20
2439;DHT22;14509;47.992;7.848;2022-12-13T08:08:58;1.10;48.30
2439;DHT22;14509;47.992;7.848;2022-12-13T08:11:00;1.20;48.20
2439;DHT22;14509;47.992;7.848;2022-12-13T08:13:03;1.60;48.50
2439;DHT22;14509;47.992;7.848;2022-12-13T08:15:07;1.60;48.40
2439;DHT22;14509;47.992;7.848;2022-12-13T08:17:09;1.20;48.10
2439;DHT22;14509;47.992;7.848;2022-12-13T08:19:11;1.20;48.00
2439;DHT22;14509;47.992;7.848;2022-12-13T08:21:13;1.20;47.70
2439;DHT22;14509;47.992;7.848;2022-12-13T08:23:15;1.30;47.80
2439;DHT22;14509;47.992;7.848;2022-12-13T08:25:17;1.30;47.50
2439;DHT22;14509;47.992;7.848;2022-12-13T08:27:19;1.30;47.20
2439;DHT22;14509;47.992;7.848;2022-12-13T08:29:21;1.30;47.30
2439;DHT22;14509;47.992;7.848;2022-12-13T08:31:25;1.20;47.20
2439;DHT22;14509;47.992;7.848;2022-12-13T08:33:26;1.80;47.70
2439;DHT22;14509;47.992;7.848;2022-12-13T08:35:29;1.50;47.30
2439;DHT22;14509;47.992;7.848;2022-12-13T08:37:31;1.90;47.40
2439;DHT22;14509;47.992;7.848;2022-12-13T08:39:34;1.50;46.90
2439;DHT22;14509;47.992;7.848;2022-12-13T08:41:36;1.60;47.10
2439;DHT22;14509;47.992;7.848;2022-12-13T08:43:38;1.60;46.90
2439;DHT22;14509;47.992;7.848;2022-12-13T08:45:40;1.60;47.30
2439;DHT22;14509;47.992;7.848;2022-12-13T08:47:43;1.70;47.10
2439;DHT22;14509;47.992;7.848;2022-12-13T08:49:45;1.70;46.90
2439;DHT22;14509;47.992;7.848;2022-12-13T08:51:47;1.80;46.70
2439;DHT22;14509;47.992;7.848;2022-12-13T08:53:50;1.80;46.60
2439;DHT22;14509;47.992;7.848;2022-12-13T08:55:52;1.80;46.60
2439;DHT22;14509;47.992;7.848;2022-12-13T08:57:54;1.90;46.60
2439;DHT22;14509;47.992;7.848;2022-12-13T08:59:56;1.80;46.60
2439;DHT22;14509;47.992;7.848;2022-12-13T09:01:58;3.30;47.80
2439;DHT22;14509;47.992;7.848;2022-12-13T09:04:02;2.10;46.70
2439;DHT22;14509;47.992;7.848;2022-12-13T09:06:05;2.10;46.60
2439;DHT22;14509;47.992;7.848;2022-12-13T09:08:07;2.10;46.60
2439;DHT22;14509;47.992;7.848;2022-12-13T09:10:09;2.20;46.40
2439;DHT22;14509;47.992;7.848;2022-12-13T09:12:12;2.30;47.20
2439;DHT22;14509;47.992;7.848;2022-12-13T09:14:14;2.40;46.40
2439;DHT22;14509;47.992;7.848;2022-12-13T09:16:19;2.40;46.20
2439;DHT22;14509;47.992;7.848;2022-12-13T09:18:23;2.40;45.90
2439;DHT22;14509;47.992;7.848;2022-12-13T09:20:26;3.40;46.20
2439;DHT22;14509;47.992;7.848;2022-12-13T09:22:28;3.40;46.30
2439;DHT22;14509;47.992;7.848;2022-12-13T09:24:30;2.40;45.50
2439;DHT22;14509;47.992;7.848;2022-12-13T09:26:32;2.40;45.40
2439;DHT22;14509;47.992;7.848;2022-12-13T09:28:35;2.30;45.20
2439;DHT22;14509;47.992;7.848;2022-12-13T09:30:37;2.70;45.60
2439;DHT22;14509;47.992;7.848;2022-12-13T09:32:40;2.40;45.50
2439;DHT22;14509;47.992;7.848;2022-12-13T09:34:43;2.80;45.80
2439;DHT22;14509;47.992;7.848;2022-12-13T15:26:31;3.30;44.20
2439;DHT22;14509;47.992;7.848;2022-12-13T15:28:33;3.30;44.40
2439;DHT22;14509;47.992;7.848;2022-12-13T15:30:36;3.30;44.40
2439;DHT22;14509;47.992;7.848;2022-12-13T15:32:51;3.30;44.40
2439;DHT22;14509;47.992;7.848;2022-12-13T15:35:13;3.40;44.50
2439;DHT22;14509;47.992;7.848;2022-12-13T15:37:17;3.30;44.20
2439;DHT22;14509;47.992;7.848;2022-12-13T15:39:19;3.30;44.30
2439;DHT22;14509;47.992;7.848;2022-12-13T15:41:23;3.30;44.30
2439;DHT22;14509;47.992;7.848;2022-12-13T15:43:31;3.30;44.30
2439;DHT22;14509;47.992;7.848;2022-12-13T15:45:35;3.30;44.40
2439;DHT22;14509;47.992;7.848;2022-12-13T15:47:42;3.20;44.20
2439;DHT22;14509;47.992;7.848;2022-12-13T15:49:48;3.20;44.50
2439;DHT22;14509;47.992;7.848;2022-12-13T15:51:52;3.10;44.50
2439;DHT22;14509;47.992;7.848;2022-12-13T15:53:59;3.10;44.70
2439;DHT22;14509;47.992;7.848;2022-12-13T15:58:21;3.10;44.90
2439;DHT22;14509;47.992;7.848;2022-12-13T16:00:27;3.10;45.10
2439;DHT22;14509;47.992;7.848;2022-12-13T16:02:29;3.10;45.20
2439;DHT22;14509;47.992;7.848;2022-12-13T16:04:32;3.10;45.20
2439;DHT22;14509;47.992;7.848;2022-12-13T16:06:34;3.60;45.60
2439;DHT22;14509;47.992;7.848;2022-12-13T16:08:37;3.20;45.40
2439;DHT22;14509;47.992;7.848;2022-12-13T16:10:44;2.60;45.20
2439;DHT22;14509;47.992;7.848;2022-12-13T16:12:47;3.30;45.80
2439;DHT22;14509;47.992;7.848;2022-12-13T16:14:50;3.50;45.90
2439;DHT22;14509;47.992;7.848;2022-12-13T16:16:54;3.30;45.70
2439;DHT22;14509;47.992;7.848;2022-12-13T16:18:57;3.30;45.80
2439;DHT22;14509;47.992;7.848;2022-12-13T16:20:59;3.80;46.20
2439;DHT22;14509;47.992;7.848;2022-12-13T16:23:02;3.30;45.80
2439;DHT22;14509;47.992;7.848;2022-12-13T16:25:05;3.30;45.90
2439;DHT22;14509;47.992;7.848;2022-12-13T16:27:08;3.40;46.00
2439;DHT22;14509;47.992;7.848;2022-12-13T16:29:10;3.40;45.80
2439;DHT22;14509;47.992;7.848;2022-12-13T16:31:17;3.40;45.90
2439;DHT22;14509;47.992;7.848;2022-12-13T16:33:23;3.40;45.80
2439;DHT22;14509;47.992;7.848;2022-12-13T16:35:27;3.40;45.80
2439;DHT22;14509;47.992;7.848;2022-12-13T16:37:29;3.40;45.60
2439;DHT22;14509;47.992;7.848;2022-12-13T16:39:31;3.40;45.80
2439;DHT22;14509;47.992;7.848;2022-12-13T16:41:38;3.40;45.60
2439;DHT22;14509;47.992;7.848;2022-12-13T16:43:51;3.40;45.90
2439;DHT22;14509;47.992;7.848;2022-12-13T16:45:55;3.40;45.90
2439;DHT22;14509;47.992;7.848;2022-12-13T16:48:01;3.40;45.60
2439;DHT22;14509;47.992;7.848;2022-12-13T16:50:08;3.40;45.70
2439;DHT22;14509;47.992;7.848;2022-12-13T16:52:10;3.30;45.70
2439;DHT22;14509;47.992;7.848;2022-12-13T16:54:13;3.30;45.30
2439;DHT22;14509;47.992;7.848;2022-12-13T16:56:18;3.60;45.60
2439;DHT22;14509;47.992;7.848;2022-12-13T16:58:23;3.30;45.60
2439;DHT22;14509;47.992;7.848;2022-12-13T17:00:28;3.40;45.40
2439;DHT22;14509;47.992;7.848;2022-12-13T17:02:31;3.30;45.70
2439;DHT22;14509;47.992;7.848;2022-12-13T17:04:33;3.20;45.60
2439;DHT22;14509;47.992;7.848;2022-12-13T17:06:42;3.70;45.80
2439;DHT22;14509;47.992;7.848;2022-12-13T17:08:46;4.00;46.30
2439;DHT22;14509;47.992;7.848;2022-12-13T17:10:49;3.30;45.90
2439;DHT22;14509;47.992;7.848;2022-12-13T17:12:52;3.20;45.80
2439;DHT22;14509;47.992;7.848;2022-12-13T17:14:57;3.20;46.00
2439;DHT22;14509;47.992;7.848;2022-12-13T17:16:59;3.20;45.80
2439;DHT22;14509;47.992;7.848;2022-12-13T17:19:01;3.30;45.60
2439;DHT22;14509;47.992;7.848;2022-12-13T17:21:05;4.10;46.30
2439;DHT22;14509;47.992;7.848;2022-12-13T17:23:09;3.40;45.70
2439;DHT22;14509;47.992;7.848;2022-12-13T17:25:11;3.30;45.50
2439;DHT22;14509;47.992;7.848;2022-12-13T17:27:14;3.40;45.60
2439;DHT22;14509;47.992;7.848;2022-12-13T17:29:17;3.30;45.10
2439;DHT22;14509;47.992;7.848;2022-12-13T17:31:19;3.40;44.90
2439;DHT22;14509;47.992;7.848;2022-12-13T17:33:22;3.30;45.00
2439;DHT22;14509;47.992;7.848;2022-12-13T17:35:24;3.30;45.10
2439;DHT22;14509;47.992;7.848;2022-12-13T17:37:27;3.40;44.90
2439;DHT22;14509;47.992;7.848;2022-12-13T17:39:30;3.40;44.80
2439;DHT22;14509;47.992;7.848;2022-12-13T17:41:32;3.40;44.70
2439;DHT22;14509;47.992;7.848;2022-12-13T17:43:35;3.40;44.40
2439;DHT22;14509;47.992;7.848;2022-12-13T17:45:37;3.50;44.30
2439;DHT22;14509;47.992;7.848;2022-12-13T17:47:43;3.90;44.40
2439;DHT22;14509;47.992;7.848;2022-12-13T17:49:45;3.40;43.90
2439;DHT22;14509;47.992;7.848;2022-12-13T17:51:48;3.40;44.00
2439;DHT22;14509;47.992;7.848;2022-12-13T17:53:53;3.40;43.90
2439;DHT22;14509;47.992;7.848;2022-12-13T17:55:57;3.40;44.00
2439;DHT22;14509;47.992;7.848;2022-12-13T17:57:59;3.60;44.40
2439;DHT22;14509;47.992;7.848;2022-12-13T18:00:02;4.70;45.20
2439;DHT22;14509;47.992;7.848;2022-12-13T18:02:13;3.40;44.30
2439;DHT22;14509;47.992;7.848;2022-12-13T18:04:17;3.80;44.50
2439;DHT22;14509;47.992;7.848;2022-12-13T18:06:19;3.40;44.10
2439;DHT22;14509;47.992;7.848;2022-12-13T18:08:21;4.00;44.50
2439;DHT22;14509;47.992;7.848;2022-12-13T18:10:22;3.50;44.10
2439;DHT22;14509;47.992;7.848;2022-12-13T18:12:26;3.50;44.10
2439;DHT22;14509;47.992;7.848;2022-12-13T18:14:29;3.50;44.20
2439;DHT22;14509;47.992;7.848;2022-12-13T18:16:31;3.50;44.00
2439;DHT22;14509;47.992;7.848;2022-12-13T18:18:33;3.50;44.00
2439;DHT22;14509;47.992;7.848;2022-12-13T18:20:35;3.50;43.90
2439;DHT22;14509;47.992;7.848;2022-12-13T18:22:37;3.70;44.00
2439;DHT22;14509;47.992;7.848;2022-12-13T18:24:39;3.50;43.90
2439;DHT22;14509;47.992;7.848;2022-12-13T18:26:41;3.60;44.20
2439;DHT22;14509;47.992;7.848;2022-12-13T18:28:44;3.50;44.50
2439;DHT22;14509;47.992;7.848;2022-12-13T18:30:46;3.60;44.90
2439;DHT22;14509;47.992;7.848;2022-12-13T18:32:49;3.70;45.00
2439;DHT22;14509;47.992;7.848;2022-12-13T18:34:51;3.60;45.10
2439;DHT22;14509;47.992;7.848;2022-12-13T18:36:52;3.60;45.30
2439;DHT22;14509;47.992;7.848;2022-12-13T18:38:56;3.60;45.30
2439;DHT22;14509;47.992;7.848;2022-12-13T18:41:04;3.70;45.50
2439;DHT22;14509;47.992;7.848;2022-12-13T18:43:07;3.70;45.70
2439;DHT22;14509;47.992;7.848;2022-12-13T18:45:11;3.70;45.50
2439;DHT22;14509;47.992;7.848;2022-12-13T18:47:12;3.70;45.50
2439;DHT22;14509;47.992;7.848;2022-12-13T18:49:15;3.30;44.90
2439;DHT22;14509;47.992;7.848;2022-12-13T18:51:21;3.80;45.20
2439;DHT22;14509;47.992;7.848;2022-12-13T18:53:23;3.80;45.40
2439;DHT22;14509;47.992;7.848;2022-12-13T18:55:28;4.50;45.80
2439;DHT22;14509;47.992;7.848;2022-12-13T18:57:30;3.90;46.20
2439;DHT22;14509;47.992;7.848;2022-12-13T18:59:33;3.90;45.30
2439;DHT22;14509;47.992;7.848;2022-12-13T19:01:37;3.90;45.20
2439;DHT22;14509;47.992;7.848;2022-12-13T19:03:41;3.90;45.10
2439;DHT22;14509;47.992;7.848;2022-12-13T19:05:45;4.00;45.30
2439;DHT22;14509;47.992;7.848;2022-12-13T19:07:47;4.00;45.10
2439;DHT22;14509;47.992;7.848;2022-12-13T19:09:49;4.00;45.00
2439;DHT22;14509;47.992;7.848;2022-12-13T19:11:54;4.00;45.00
2439;DHT22;14509;47.992;7.848;2022-12-13T19:13:58;4.00;45.00
2439;DHT22;14509;47.992;7.848;2022-12-13T19:16:03;4.20;45.10
2439;DHT22;14509;47.992;7.848;2022-12-13T19:18:09;4.70;45.70
2439;DHT22;14509;47.992;7.848;2022-12-13T19:20:55;4.10;45.10
2439;DHT22;14509;47.992;7.848;2022-12-13T19:22:57;4.10;44.80
2439;DHT22;14509;47.992;7.848;2022-12-13T19:25:02;4.10;44.60